This is the latest recevied weather packets stored in our database for station/object N4OGP-WX. If no packets are shown the sender has not sent any weather packets the latest 10 day(s).
| Time | Temp. | Humidity | Pressure | Rain* | Wind** | Luminosity | Snow |
|---|---|---|---|---|---|---|---|
| 1778112568 | 23.89° C | 42% | 1020.4 hPa | 0 mm | - | - | - |
| 1778112477 | 23.89° C | 89% | 1010 hPa | 0 mm | - | - | - |
| 1778112387 | 23.89° C | 89% | 1010 hPa | 0 mm | - | - | - |
| 1778112297 | 23.89° C | 42% | 1020.4 hPa | 0 mm | - | - | - |
| 1778112207 | 23.89° C | 89% | 1010 hPa | 0 mm | - | - | - |
| 1778112147 | 23.89° C | 42% | 1020.4 hPa | 0 mm | - | - | - |
| 1778112087 | 23.89° C | 90% | 1010 hPa | 0 mm | - | - | - |
| 1778111997 | 23.89° C | 90% | 1010 hPa | 0 mm | - | - | - |
| 1778111937 | 23.89° C | 90% | 1010 hPa | 0 mm | - | - | - |
| 1778111847 | 23.89° C | 42% | 1020.4 hPa | 0 mm | - | - | - |
| 1778111787 | 23.89° C | 90% | 1010 hPa | 0 mm | - | - | - |
| 1778111727 | 23.89° C | 42% | 1020.4 hPa | 0 mm | - | - | - |
| 1778111667 | 24.44° C | 90% | 1010 hPa | 0 mm | - | - | - |
| 1778111577 | 24.44° C | 89% | 1010.1 hPa | 0 mm | - | - | - |
| 1778111517 | 23.89° C | 42% | 1020.4 hPa | 0 mm | - | - | - |
| 1778111427 | 23.89° C | 42% | 1020.4 hPa | 0 mm | - | - | - |
| 1778111367 | 24.44° C | 89% | 1010.2 hPa | 0 mm | - | - | - |
| 1778111307 | 23.89° C | 42% | 1020.4 hPa | 0 mm | - | - | - |
| 1778111218 | 24.44° C | 89% | 1010.2 hPa | 0 mm | - | - | - |
| 1778111157 | 24.44° C | 89% | 1010.2 hPa | 0 mm | - | - | - |
| 1778111097 | 23.89° C | 42% | 1020.4 hPa | 0 mm | - | - | - |
| 1778111037 | 24.44° C | 89% | 1010.1 hPa | 0 mm | - | - | - |
| 1778110947 | 23.89° C | 42% | 1020.4 hPa | 0 mm | - | - | - |
| 1778110857 | 23.89° C | 42% | 1020.4 hPa | 0 mm | - | - | - |
| 1778110797 | 23.89° C | 42% | 1020.4 hPa | 0 mm | - | - | - |
* Rain latest hour (hover to see other rain measurements)
** Current wind speed in m/s (hover to see current wind gust speed)